createdAt,value
2023-03-26T00:00:24.570Z,10.55
2023-03-26T00:03:10.407Z,10.67
2023-03-26T00:06:04.646Z,10.75
2023-03-26T00:08:50.937Z,11.01
2023-03-26T00:11:35.381Z,11.53
2023-03-26T00:14:19.344Z,11.32
2023-03-26T00:17:04.519Z,11.72
2023-03-26T00:19:48.923Z,11.87
2023-03-26T00:22:32.876Z,11.64
2023-03-26T00:25:18.792Z,11.30
2023-03-26T00:28:04.065Z,11.14
2023-03-26T00:30:48.279Z,10.95
2023-03-26T00:33:32.720Z,10.93
2023-03-26T00:36:20.178Z,10.85
2023-03-26T00:39:06.148Z,10.85
2023-03-26T00:41:54.570Z,10.57
2023-03-26T00:44:38.893Z,10.63
2023-03-26T00:47:22.951Z,10.43
2023-03-26T00:50:15.485Z,10.52
2023-03-26T00:52:59.614Z,10.48
2023-03-26T00:55:45.213Z,10.55
2023-03-26T00:58:31.270Z,10.31
2023-03-26T01:01:17.511Z,10.67
2023-03-26T01:04:28.396Z,10.57
2023-03-26T01:07:17.075Z,10.43
2023-03-26T01:10:02.087Z,10.53
2023-03-26T01:12:47.565Z,10.35
2023-03-26T01:15:33.367Z,10.32
2023-03-26T01:18:17.539Z,10.26
2023-03-26T01:21:09.446Z,10.39
2023-03-26T01:24:05.302Z,10.52
2023-03-26T01:27:04.538Z,10.43
2023-03-26T01:29:56.072Z,10.44
2023-03-26T01:32:51.739Z,10.51
2023-03-26T01:35:46.002Z,10.00
2023-03-26T01:38:35.688Z,10.04
2023-03-26T01:41:26.437Z,9.88
2023-03-26T01:44:17.939Z,9.56
2023-03-26T01:47:02.730Z,10.19
2023-03-26T01:49:46.679Z,10.03
2023-03-26T01:52:31.725Z,10.16
2023-03-26T01:55:16.057Z,10.48
2023-03-26T01:58:12.409Z,10.78
2023-03-26T02:01:04.572Z,10.74
2023-03-26T02:03:54.833Z,11.09
2023-03-26T02:06:44.538Z,11.34
2023-03-26T02:09:32.528Z,11.41
2023-03-26T02:12:17.837Z,11.45
2023-03-26T02:15:03.379Z,11.66
2023-03-26T02:17:49.484Z,11.34
2023-03-26T02:20:33.427Z,11.89
2023-03-26T02:23:17.356Z,11.91
2023-03-26T02:26:06.419Z,11.88
2023-03-26T02:28:51.454Z,11.90
2023-03-26T02:31:37.986Z,12.00
2023-03-26T02:34:22.201Z,12.10
2023-03-26T02:37:08.927Z,11.95
2023-03-26T02:39:54.812Z,11.83
2023-03-26T02:42:47.445Z,12.03
2023-03-26T02:45:31.864Z,12.17
2023-03-26T02:48:50.010Z,12.20
2023-03-26T02:51:40.299Z,12.24
2023-03-26T02:54:37.203Z,12.20
2023-03-26T02:57:36.090Z,11.94
2023-03-26T03:00:22.740Z,12.37
2023-03-26T03:03:07.676Z,11.90
2023-03-26T03:06:18.918Z,12.24
2023-03-26T03:09:09.826Z,12.18
2023-03-26T03:11:53.732Z,12.16
2023-03-26T03:14:37.993Z,12.10
2023-03-26T03:17:22.147Z,12.24
2023-03-26T03:20:09.349Z,12.22
2023-03-26T03:22:56.700Z,12.42
2023-03-26T03:25:41.672Z,12.39
2023-03-26T03:28:26.020Z,12.67
2023-03-26T03:31:10.279Z,12.48
2023-03-26T03:33:54.388Z,12.24
2023-03-26T03:36:39.498Z,12.06
2023-03-26T03:39:34.433Z,11.99
2023-03-26T03:42:18.648Z,11.88
2023-03-26T03:45:03.397Z,12.06
2023-03-26T03:48:07.700Z,11.89
2023-03-26T03:51:01.641Z,12.17
2023-03-26T03:53:52.900Z,12.10
2023-03-26T03:56:51.199Z,12.00
2023-03-26T03:59:58.348Z,11.91
2023-03-26T04:02:46.725Z,11.81
2023-03-26T04:05:33.430Z,11.70
2023-03-26T04:08:17.951Z,11.82
2023-03-26T04:11:05.364Z,11.76
2023-03-26T04:14:10.275Z,12.12
2023-03-26T04:17:27.049Z,11.66
2023-03-26T04:20:15.935Z,12.09
2023-03-26T04:23:02.462Z,12.09
2023-03-26T04:25:49.546Z,11.63
2023-03-26T04:28:46.543Z,11.48
2023-03-26T04:31:36.623Z,11.56
2023-03-26T04:34:25.284Z,11.88
2023-03-26T04:37:34.556Z,11.77
2023-03-26T04:40:25.684Z,11.87
2023-03-26T04:43:18.144Z,12.10
2023-03-26T04:46:33.823Z,11.65
2023-03-26T04:49:27.686Z,11.76
2023-03-26T04:52:12.940Z,11.96
2023-03-26T04:55:41.188Z,12.12
2023-03-26T04:58:35.496Z,11.76
2023-03-26T05:01:20.140Z,11.80
2023-03-26T05:04:04.332Z,11.84
2023-03-26T05:06:49.954Z,11.81
2023-03-26T05:09:52.901Z,11.50
2023-03-26T05:12:40.624Z,11.64
2023-03-26T05:15:32.722Z,11.50
2023-03-26T05:18:29.578Z,11.86
2023-03-26T05:21:13.833Z,11.79
2023-03-26T05:23:59.562Z,11.71
2023-03-26T05:26:43.504Z,11.74
2023-03-26T05:29:28.624Z,11.83
2023-03-26T05:32:13.099Z,11.87
2023-03-26T05:34:57.240Z,12.23
2023-03-26T05:37:41.151Z,12.08
2023-03-26T05:40:26.798Z,12.24
2023-03-26T05:43:21.827Z,12.61
2023-03-26T05:46:18.234Z,12.83
2023-03-26T05:49:02.369Z,12.93
2023-03-26T05:51:50.641Z,12.96
2023-03-26T05:54:55.031Z,12.91
2023-03-26T05:57:58.784Z,12.77
2023-03-26T06:01:19.085Z,12.86
2023-03-26T06:04:22.172Z,13.11
2023-03-26T06:07:27.233Z,12.93
2023-03-26T06:10:27.683Z,12.64
2023-03-26T06:13:13.742Z,12.92
2023-03-26T06:15:58.514Z,12.72
2023-03-26T06:18:47.993Z,12.64
2023-03-26T06:21:40.502Z,12.67
2023-03-26T06:24:35.012Z,12.64
2023-03-26T06:27:38.682Z,12.64
2023-03-26T06:31:02.712Z,12.91
2023-03-26T06:33:53.424Z,12.64
2023-03-26T06:36:38.188Z,12.54
2023-03-26T06:39:22.557Z,12.66
2023-03-26T06:42:22.261Z,12.86
2023-03-26T06:45:46.565Z,12.56
2023-03-26T06:48:52.285Z,12.47
2023-03-26T06:51:56.268Z,12.71
2023-03-26T06:54:58.959Z,12.96
2023-03-26T06:58:22.529Z,12.81
2023-03-26T07:01:29.308Z,12.95
2023-03-26T07:04:33.570Z,13.51
2023-03-26T07:07:36.288Z,13.31
2023-03-26T07:10:48.742Z,13.44
2023-03-26T07:13:59.716Z,13.12
2023-03-26T07:17:21.755Z,13.21
2023-03-26T07:20:30.497Z,13.26
2023-03-26T07:23:15.780Z,13.60
2023-03-26T07:26:24.469Z,13.54
2023-03-26T07:29:28.121Z,13.05
2023-03-26T07:32:30.410Z,13.44
2023-03-26T07:35:28.816Z,13.49
2023-03-26T07:38:48.773Z,13.49
2023-03-26T07:42:02.753Z,14.16
2023-03-26T07:45:18.528Z,14.01
2023-03-26T07:48:27.478Z,14.07
2023-03-26T07:51:44.316Z,14.36
2023-03-26T07:54:56.349Z,14.24
2023-03-26T07:58:11.628Z,14.07
2023-03-26T08:01:36.619Z,13.91
2023-03-26T08:04:45.710Z,13.92
2023-03-26T08:07:59.706Z,13.81
2023-03-26T08:11:05.418Z,14.32
2023-03-26T08:14:02.692Z,14.27
2023-03-26T08:16:52.694Z,14.23
2023-03-26T08:20:05.899Z,14.36
2023-03-26T08:22:55.459Z,14.25
2023-03-26T08:25:52.094Z,14.37
2023-03-26T08:28:53.625Z,13.88
2023-03-26T08:31:41.188Z,14.54
2023-03-26T08:34:25.579Z,14.28
2023-03-26T08:37:10.106Z,15.01
2023-03-26T08:39:54.363Z,14.63
2023-03-26T08:43:18.964Z,15.19
2023-03-26T08:46:35.504Z,15.38
2023-03-26T08:49:46.738Z,15.59
2023-03-26T08:53:22.900Z,16.17
2023-03-26T08:56:27.915Z,16.16
2023-03-26T08:59:38.172Z,15.48
2023-03-26T09:03:03.497Z,15.90
2023-03-26T09:06:06.766Z,15.19
2023-03-26T09:09:26.028Z,15.13
2023-03-26T09:12:51.451Z,14.89
2023-03-26T09:16:07.853Z,14.93
2023-03-26T09:19:20.172Z,15.18
2023-03-26T09:22:39.478Z,15.12
2023-03-26T09:25:54.559Z,15.27
2023-03-26T09:29:04.241Z,15.10
2023-03-26T09:32:42.304Z,15.46
2023-03-26T09:35:53.480Z,14.91
2023-03-26T09:38:44.949Z,15.75
2023-03-26T09:41:42.696Z,15.35
2023-03-26T09:45:02.028Z,15.65
2023-03-26T09:48:14.031Z,15.40
2023-03-26T09:51:26.747Z,15.14
2023-03-26T09:54:44.536Z,14.96
2023-03-26T09:57:53.981Z,14.85
2023-03-26T10:00:45.796Z,14.71
2023-03-26T10:03:42.956Z,15.22
2023-03-26T10:06:39.682Z,15.61
2023-03-26T10:09:43.798Z,16.59
2023-03-26T10:12:35.361Z,15.07
2023-03-26T10:15:35.626Z,15.16
2023-03-26T10:18:33.276Z,15.42
2023-03-26T10:21:28.074Z,15.80
2023-03-26T10:24:28.967Z,15.32
2023-03-26T10:27:33.672Z,15.39
2023-03-26T10:30:49.203Z,15.59
2023-03-26T10:33:40.647Z,15.46
2023-03-26T10:36:32.078Z,14.93
2023-03-26T10:39:37.404Z,15.65
2023-03-26T10:42:43.428Z,15.87
2023-03-26T10:45:36.573Z,15.50
2023-03-26T10:48:52.018Z,15.33
2023-03-26T10:51:48.901Z,14.81
2023-03-26T10:54:42.285Z,15.82
2023-03-26T10:57:41.624Z,16.03
2023-03-26T11:00:29.269Z,15.99
2023-03-26T11:03:32.801Z,15.80
2023-03-26T11:06:35.017Z,14.96
2023-03-26T11:09:30.464Z,15.24
2023-03-26T11:12:27.005Z,15.16
2023-03-26T11:15:21.884Z,15.33
2023-03-26T11:18:17.150Z,15.71
2023-03-26T11:21:19.056Z,15.90
2023-03-26T11:24:16.717Z,14.93
2023-03-26T11:27:15.439Z,15.61
2023-03-26T11:30:11.302Z,15.12
2023-03-26T11:32:58.938Z,15.36
2023-03-26T11:35:47.751Z,15.70
2023-03-26T11:38:38.648Z,15.70
2023-03-26T11:41:28.138Z,15.72
2023-03-26T11:44:29.523Z,16.66
2023-03-26T11:47:17.627Z,16.11
2023-03-26T11:50:03.382Z,16.22
2023-03-26T11:52:48.078Z,16.05
2023-03-26T11:55:34.061Z,16.12
2023-03-26T11:58:31.361Z,16.24
2023-03-26T12:01:18.926Z,16.46
2023-03-26T12:04:08.168Z,16.37
2023-03-26T12:06:56.822Z,16.28
2023-03-26T12:09:51.522Z,16.07
2023-03-26T12:12:41.898Z,15.89
2023-03-26T12:15:26.844Z,16.36
2023-03-26T12:18:26.229Z,16.71
2023-03-26T12:21:13.227Z,16.98
2023-03-26T12:24:00.100Z,16.31
2023-03-26T12:26:46.576Z,16.36
2023-03-26T12:29:34.751Z,16.10
2023-03-26T12:32:19.017Z,16.55
2023-03-26T12:35:07.728Z,16.13
2023-03-26T12:37:52.007Z,16.12
2023-03-26T12:40:36.900Z,16.25
2023-03-26T12:44:53.907Z,16.28
2023-03-26T12:47:55.273Z,16.04
2023-03-26T12:49:40.199Z,16.09
2023-03-26T12:52:48.055Z,16.67
2023-03-26T12:55:44.195Z,16.05
2023-03-26T12:58:51.478Z,16.61
2023-03-26T13:01:50.602Z,16.76
2023-03-26T13:05:06.022Z,16.94
2023-03-26T13:08:01.632Z,16.86
2023-03-26T13:10:57.735Z,16.78
2023-03-26T13:13:58.119Z,16.46
2023-03-26T13:16:54.141Z,16.82
2023-03-26T13:19:45.318Z,16.71
2023-03-26T13:22:39.495Z,17.03
2023-03-26T13:25:35.476Z,16.72
2023-03-26T13:28:33.216Z,16.79
2023-03-26T13:31:24.135Z,16.85
2023-03-26T13:34:19.677Z,17.11
2023-03-26T13:37:13.999Z,17.18
2023-03-26T13:40:06.968Z,17.09
2023-03-26T13:43:03.564Z,17.11
2023-03-26T13:46:01.242Z,17.11
2023-03-26T13:48:53.009Z,16.73
2023-03-26T13:51:43.351Z,16.71
2023-03-26T13:54:31.495Z,16.55
2023-03-26T13:57:24.249Z,17.07
2023-03-26T14:00:16.537Z,17.42
2023-03-26T14:03:09.549Z,17.06
2023-03-26T14:05:58.215Z,17.27
2023-03-26T14:08:49.385Z,17.17
2023-03-26T14:11:48.913Z,17.68
2023-03-26T14:14:39.051Z,17.95
2023-03-26T14:17:28.340Z,18.06
2023-03-26T14:20:33.983Z,17.77
2023-03-26T14:23:49.265Z,17.67
2023-03-26T14:26:52.162Z,17.63
2023-03-26T14:29:57.080Z,17.67
2023-03-26T14:32:54.188Z,17.39
2023-03-26T14:35:41.611Z,17.53
2023-03-26T14:39:01.602Z,17.24
2023-03-26T14:41:51.749Z,17.24
2023-03-26T14:44:58.059Z,17.08
2023-03-26T14:47:51.842Z,17.63
2023-03-26T14:50:56.020Z,17.81
2023-03-26T14:53:45.119Z,17.45
2023-03-26T14:57:06.687Z,17.34
2023-03-26T15:00:32.168Z,17.71
2023-03-26T15:03:59.928Z,17.60
2023-03-26T15:07:15.485Z,17.52
2023-03-26T15:10:26.811Z,18.02
2023-03-26T15:13:36.871Z,18.06
2023-03-26T15:16:56.103Z,17.81
2023-03-26T15:20:19.913Z,18.11
2023-03-26T15:23:33.547Z,18.14
2023-03-26T15:27:02.425Z,18.00
2023-03-26T15:30:19.184Z,18.16
2023-03-26T15:33:38.596Z,17.95
2023-03-26T15:36:59.067Z,17.79
2023-03-26T15:40:12.243Z,17.91
2023-03-26T15:43:05.746Z,17.73
2023-03-26T15:45:55.058Z,17.03
2023-03-26T15:48:57.904Z,16.68
2023-03-26T15:51:55.856Z,16.81
2023-03-26T15:54:52.109Z,16.44
2023-03-26T15:57:47.159Z,15.87
2023-03-26T16:00:35.895Z,15.81
2023-03-26T16:03:34.441Z,15.79
2023-03-26T16:06:36.941Z,15.32
2023-03-26T16:09:46.415Z,15.39
2023-03-26T16:12:34.420Z,14.89
2023-03-26T16:15:29.901Z,15.03
2023-03-26T16:18:37.328Z,15.17
2023-03-26T16:21:41.296Z,15.10
2023-03-26T16:24:28.958Z,14.49
2023-03-26T16:27:32.355Z,14.62
2023-03-26T16:30:33.638Z,14.33
2023-03-26T16:33:21.683Z,14.17
2023-03-26T16:36:26.060Z,13.99
2023-03-26T16:39:19.415Z,13.23
2023-03-26T16:42:10.425Z,13.71
2023-03-26T16:45:07.148Z,13.19
2023-03-26T16:48:03.106Z,13.38
2023-03-26T16:50:53.641Z,13.60
2023-03-26T16:53:47.407Z,13.23
2023-03-26T16:56:38.765Z,13.17
2023-03-26T17:00:05.642Z,12.79
2023-03-26T17:03:00.077Z,12.77
2023-03-26T17:06:02.233Z,12.79
2023-03-26T17:08:57.605Z,12.16
2023-03-26T17:11:55.031Z,12.46
2023-03-26T17:14:50.804Z,11.63
2023-03-26T17:17:54.990Z,12.20
2023-03-26T17:20:44.468Z,12.11
2023-03-26T17:23:45.621Z,11.73
2023-03-26T17:26:54.371Z,12.17
2023-03-26T17:30:00.336Z,11.64
2023-03-26T17:32:58.926Z,11.85
2023-03-26T17:35:45.739Z,11.87
2023-03-26T17:39:03.214Z,11.73
2023-03-26T17:41:56.383Z,11.24
2023-03-26T17:44:50.308Z,11.69
2023-03-26T17:47:39.682Z,11.55
2023-03-26T17:50:30.070Z,11.59
2023-03-26T17:53:20.779Z,11.44
2023-03-26T17:56:07.706Z,11.31
2023-03-26T17:59:11.442Z,10.85
2023-03-26T18:02:00.314Z,11.00
2023-03-26T18:04:48.397Z,10.48
2023-03-26T18:08:09.509Z,11.11
2023-03-26T18:11:27.207Z,10.97
2023-03-26T18:14:40.663Z,10.98
2023-03-26T18:17:26.402Z,11.26
2023-03-26T18:20:21.845Z,10.86
2023-03-26T18:23:12.395Z,11.15
2023-03-26T18:25:59.319Z,10.84
2023-03-26T18:28:45.292Z,11.11
2023-03-26T18:31:33.496Z,10.93
2023-03-26T18:34:20.272Z,10.75
2023-03-26T18:37:17.871Z,10.91
2023-03-26T18:40:11.398Z,10.70
2023-03-26T18:42:59.232Z,10.84
2023-03-26T18:45:45.129Z,10.46
2023-03-26T18:48:30.997Z,10.25
2023-03-26T18:51:16.205Z,10.30
2023-03-26T18:54:02.611Z,9.89
2023-03-26T18:56:49.063Z,10.13
2023-03-26T18:59:41.231Z,10.14
2023-03-26T19:02:26.948Z,10.12
2023-03-26T19:05:18.192Z,9.48
2023-03-26T19:08:05.046Z,9.23
2023-03-26T19:10:50.485Z,9.65
2023-03-26T19:13:37.690Z,9.51
2023-03-26T19:16:24.305Z,9.30
2023-03-26T19:19:09.325Z,8.97
2023-03-26T19:21:54.997Z,9.02
2023-03-26T19:24:39.954Z,9.03
2023-03-26T19:27:24.357Z,8.85
2023-03-26T19:30:11.967Z,8.87
2023-03-26T19:33:13.016Z,8.87
2023-03-26T19:36:04.946Z,8.69
2023-03-26T19:38:53.868Z,9.08
2023-03-26T19:41:41.198Z,8.92
2023-03-26T19:44:28.738Z,9.14
2023-03-26T19:47:19.768Z,9.36
2023-03-26T19:50:23.701Z,9.12
2023-03-26T19:53:17.818Z,8.97
2023-03-26T19:56:13.730Z,8.81
2023-03-26T19:58:59.485Z,8.88
2023-03-26T20:01:43.815Z,8.74
2023-03-26T20:04:32.570Z,8.93
2023-03-26T20:07:19.315Z,8.58
2023-03-26T20:10:06.696Z,9.01
2023-03-26T20:12:52.300Z,8.83
2023-03-26T20:15:38.320Z,8.41
2023-03-26T20:18:22.960Z,8.22
2023-03-26T20:21:12.536Z,8.67
2023-03-26T20:23:56.946Z,9.02
2023-03-26T20:26:40.993Z,9.06
2023-03-26T20:29:28.398Z,9.08
2023-03-26T20:32:20.258Z,9.09
2023-03-26T20:35:04.165Z,9.03
2023-03-26T20:37:49.330Z,8.77
2023-03-26T20:40:33.908Z,8.58
2023-03-26T20:43:19.592Z,7.70
2023-03-26T20:46:04.996Z,8.49
2023-03-26T20:48:49.535Z,8.54
2023-03-26T20:51:33.566Z,8.61
2023-03-26T20:54:19.421Z,8.31
2023-03-26T20:57:03.888Z,8.44
2023-03-26T20:59:47.843Z,8.40
2023-03-26T21:02:33.569Z,8.37
2023-03-26T21:05:24.256Z,8.44
2023-03-26T21:08:09.169Z,8.47
2023-03-26T21:10:56.206Z,8.57
2023-03-26T21:13:45.045Z,8.71
2023-03-26T21:16:29.656Z,8.50
2023-03-26T21:19:15.943Z,8.48
2023-03-26T21:22:14.435Z,8.38
2023-03-26T21:25:05.906Z,8.48
2023-03-26T21:28:01.525Z,8.22
2023-03-26T21:30:47.206Z,8.35
2023-03-26T21:33:31.206Z,8.69
2023-03-26T21:36:18.305Z,8.65
2023-03-26T21:39:03.348Z,8.38
2023-03-26T21:42:05.509Z,8.63
2023-03-26T21:44:50.478Z,8.45
2023-03-26T21:47:35.199Z,8.85
2023-03-26T21:50:21.929Z,8.83
2023-03-26T21:53:08.123Z,8.56
2023-03-26T21:56:06.325Z,8.30
2023-03-26T21:59:00.322Z,8.30
2023-03-26T22:01:52.057Z,7.91
2023-03-26T22:04:40.567Z,7.87
2023-03-26T22:07:28.637Z,7.72
2023-03-26T22:10:14.090Z,7.59
2023-03-26T22:12:58.274Z,7.47
2023-03-26T22:15:42.296Z,7.25
2023-03-26T22:18:30.045Z,7.46
2023-03-26T22:21:14.288Z,7.56
2023-03-26T22:23:58.233Z,7.17
2023-03-26T22:26:43.711Z,7.82
2023-03-26T22:29:27.598Z,7.61
2023-03-26T22:32:11.696Z,7.83
2023-03-26T22:34:55.582Z,7.69
2023-03-26T22:37:39.657Z,7.51
2023-03-26T22:40:23.803Z,7.66
2023-03-26T22:43:09.365Z,7.90
2023-03-26T22:45:54.826Z,7.89
2023-03-26T22:48:40.812Z,7.84
2023-03-26T22:51:25.085Z,7.42
2023-03-26T22:54:09.773Z,7.45
2023-03-26T22:56:55.567Z,7.65
2023-03-26T22:59:41.041Z,7.35
2023-03-26T23:02:25.042Z,7.13
2023-03-26T23:05:10.597Z,7.42
2023-03-26T23:07:54.508Z,7.67
2023-03-26T23:10:38.369Z,7.54
2023-03-26T23:13:23.382Z,7.74
2023-03-26T23:16:10.479Z,7.70
2023-03-26T23:18:54.821Z,7.53
2023-03-26T23:21:38.925Z,7.27
2023-03-26T23:24:22.872Z,7.50
2023-03-26T23:27:07.348Z,7.43
2023-03-26T23:29:51.419Z,7.10
2023-03-26T23:32:38.196Z,7.45
2023-03-26T23:35:22.310Z,7.13
2023-03-26T23:38:07.061Z,7.44
2023-03-26T23:40:57.349Z,7.63
2023-03-26T23:43:54.359Z,7.47
2023-03-26T23:46:41.782Z,7.35
2023-03-26T23:49:27.270Z,6.83
2023-03-26T23:52:11.834Z,7.05
2023-03-26T23:54:55.815Z,7.32
2023-03-26T23:57:40.779Z,7.25
